createdAt,value
2022-12-14T00:03:45.668Z,2.40
2022-12-14T00:07:49.063Z,2.30
2022-12-14T00:11:50.912Z,2.40
2022-12-14T00:15:52.532Z,2.30
2022-12-14T00:19:54.939Z,2.20
2022-12-14T00:23:58.522Z,2.10
2022-12-14T00:28:00.196Z,2.40
2022-12-14T00:32:01.808Z,2.20
2022-12-14T00:36:05.195Z,2.20
2022-12-14T00:40:08.174Z,2.20
2022-12-14T00:44:09.851Z,2.20
2022-12-14T00:48:12.328Z,2.30
2022-12-14T00:52:14.098Z,2.40
2022-12-14T00:56:16.245Z,2.20
2022-12-14T01:00:18.100Z,2.20
2022-12-14T01:04:22.291Z,2.20
2022-12-14T01:08:24.232Z,1.70
2022-12-14T01:12:25.892Z,2.00
2022-12-14T01:16:27.546Z,2.20
2022-12-14T01:20:29.192Z,1.90
2022-12-14T01:24:30.882Z,1.90
2022-12-14T01:28:34.940Z,2.30
2022-12-14T01:32:36.734Z,2.60
2022-12-14T01:36:38.842Z,2.50
2022-12-14T01:40:40.851Z,2.20
2022-12-14T01:44:42.523Z,2.20
2022-12-14T01:48:45.486Z,2.10
2022-12-14T01:52:49.353Z,2.20
2022-12-14T01:56:52.251Z,2.20
2022-12-14T02:00:56.723Z,2.20
2022-12-14T02:05:02.145Z,2.40
2022-12-14T02:09:12.420Z,2.50
2022-12-14T02:13:20.522Z,2.60
2022-12-14T02:17:22.711Z,2.50
2022-12-14T02:21:57.929Z,2.50
2022-12-14T02:26:09.112Z,2.50
2022-12-14T02:30:22.729Z,2.50
2022-12-14T02:34:57.851Z,2.40
2022-12-14T02:39:07.546Z,2.40
2022-12-14T02:43:28.173Z,2.60
2022-12-14T02:47:49.382Z,2.70
2022-12-14T02:52:03.003Z,2.60
2022-12-14T02:56:10.118Z,2.60
2022-12-14T03:00:12.569Z,2.80
2022-12-14T03:04:14.883Z,2.80
2022-12-14T03:08:16.982Z,2.70
2022-12-14T03:12:20.999Z,2.70
2022-12-14T03:16:27.184Z,2.80
2022-12-14T03:20:33.016Z,2.60
2022-12-14T03:24:49.381Z,2.40
2022-12-14T03:28:55.916Z,2.50
2022-12-14T03:33:02.706Z,2.50
2022-12-14T03:37:14.776Z,2.50
2022-12-14T03:41:27.547Z,2.30
2022-12-14T03:45:49.903Z,2.50
2022-12-14T03:49:58.343Z,2.50
2022-12-14T03:54:08.702Z,2.60
2022-12-14T03:58:16.370Z,2.90
2022-12-14T04:02:40.887Z,2.90
2022-12-14T04:07:19.625Z,3.00
2022-12-14T04:11:42.129Z,2.70
2022-12-14T04:16:04.802Z,2.80
2022-12-14T04:20:27.957Z,2.90
2022-12-14T04:24:51.000Z,2.80
2022-12-14T04:29:22.669Z,2.70
2022-12-14T04:33:43.244Z,2.50
2022-12-14T04:37:52.537Z,2.40
2022-12-14T04:41:57.703Z,2.60
2022-12-14T04:46:05.505Z,2.60
2022-12-14T04:50:17.585Z,2.60
2022-12-14T04:54:22.928Z,2.70
2022-12-14T04:58:30.095Z,2.50
2022-12-14T05:03:10.327Z,2.70
2022-12-14T05:07:22.898Z,2.70
2022-12-14T05:11:54.742Z,2.70
2022-12-14T05:15:58.636Z,2.70
2022-12-14T05:20:00.248Z,2.40
2022-12-14T05:24:03.438Z,2.60
2022-12-14T05:28:05.327Z,2.70
2022-12-14T05:32:08.847Z,2.60
2022-12-14T05:36:11.009Z,1.70
2022-12-14T05:40:13.391Z,1.90
2022-12-14T05:44:15.080Z,2.20
2022-12-14T05:48:16.692Z,2.10
2022-12-14T05:52:18.457Z,2.00
2022-12-14T05:56:20.845Z,2.20
2022-12-14T06:00:22.611Z,2.30
2022-12-14T06:04:24.317Z,1.80
2022-12-14T06:08:26.036Z,2.10
2022-12-14T06:12:28.794Z,2.40
2022-12-14T06:16:30.499Z,2.60
2022-12-14T06:20:32.186Z,2.90
2022-12-14T06:24:33.872Z,3.10
2022-12-14T06:28:35.911Z,2.90
2022-12-14T06:32:37.527Z,3.10
2022-12-14T06:36:41.674Z,2.80
2022-12-14T06:40:43.554Z,3.10
2022-12-14T06:44:45.240Z,3.10
2022-12-14T06:48:54.698Z,3.10
2022-12-14T06:52:56.612Z,3.30
2022-12-14T06:56:58.308Z,3.30
2022-12-14T07:01:08.913Z,3.30
2022-12-14T07:05:10.715Z,3.20
2022-12-14T07:09:14.197Z,3.10
2022-12-14T07:13:15.832Z,3.20
2022-12-14T07:17:17.630Z,2.80
2022-12-14T07:21:20.741Z,2.60
2022-12-14T07:25:22.401Z,2.90
2022-12-14T07:29:24.054Z,3.10
2022-12-14T07:33:26.834Z,2.90
2022-12-14T07:37:28.756Z,2.80
2022-12-14T07:41:31.501Z,2.70
2022-12-14T07:45:33.166Z,2.80
2022-12-14T07:49:34.786Z,3.00
2022-12-14T07:53:38.480Z,2.70
2022-12-14T07:57:40.319Z,2.40
2022-12-14T08:01:43.538Z,2.40
2022-12-14T08:05:45.328Z,2.20
2022-12-14T08:09:47.998Z,2.30
2022-12-14T08:14:05.998Z,2.20
2022-12-14T08:18:07.679Z,2.80
2022-12-14T08:22:09.300Z,2.70
2022-12-14T08:26:10.964Z,2.40
2022-12-14T08:30:12.990Z,2.80
2022-12-14T08:34:20.703Z,3.00
2022-12-14T08:38:22.451Z,2.80
2022-12-14T08:42:24.127Z,2.90
2022-12-14T08:46:28.074Z,2.40
2022-12-14T08:50:30.000Z,2.50
2022-12-14T08:54:31.740Z,2.90
2022-12-14T08:58:34.673Z,3.10
2022-12-14T09:02:36.802Z,2.80
2022-12-14T09:06:39.522Z,2.30
2022-12-14T09:10:41.291Z,2.30
2022-12-14T09:14:46.482Z,2.60
2022-12-14T09:18:51.051Z,2.90
2022-12-14T09:22:52.869Z,2.80
2022-12-14T09:26:54.848Z,2.80
2022-12-14T09:30:58.244Z,2.90
2022-12-14T09:34:59.990Z,3.30
2022-12-14T09:39:02.177Z,3.30
2022-12-14T09:43:06.735Z,3.20
2022-12-14T09:47:13.030Z,3.00
2022-12-14T09:51:17.247Z,3.50
2022-12-14T09:55:21.848Z,3.40
2022-12-14T09:59:28.117Z,3.50
2022-12-14T10:04:06.772Z,3.90
2022-12-14T10:08:17.027Z,3.70
2022-12-14T10:12:39.039Z,3.60
2022-12-14T10:17:11.125Z,3.70
2022-12-14T10:21:20.393Z,3.30
2022-12-14T10:25:25.844Z,3.40
2022-12-14T10:29:41.350Z,3.40
2022-12-14T10:33:45.569Z,3.60
2022-12-14T10:38:13.343Z,4.00
2022-12-14T10:42:51.220Z,3.70
2022-12-14T10:47:11.815Z,3.90
2022-12-14T10:51:21.960Z,3.80
2022-12-14T10:55:27.725Z,3.80
2022-12-14T10:59:38.580Z,3.60
2022-12-14T11:03:43.806Z,3.70
2022-12-14T11:07:49.574Z,4.10
2022-12-14T11:12:03.580Z,3.80
2022-12-14T11:16:36.391Z,3.90
2022-12-14T11:20:49.448Z,4.10
2022-12-14T11:24:51.375Z,4.40
2022-12-14T11:28:56.435Z,3.60
2022-12-14T11:32:58.206Z,4.00
2022-12-14T11:37:22.498Z,4.10
2022-12-14T11:41:24.600Z,4.10
2022-12-14T11:45:26.262Z,4.00
2022-12-14T11:49:27.901Z,3.80
2022-12-14T11:53:29.567Z,3.90
2022-12-14T11:57:39.661Z,4.10
2022-12-14T12:01:42.527Z,4.20
2022-12-14T12:05:44.945Z,4.30
2022-12-14T12:09:46.654Z,4.70
2022-12-14T12:13:53.485Z,4.50
2022-12-14T12:18:28.850Z,4.70
2022-12-14T12:22:31.464Z,4.60
2022-12-14T12:26:50.089Z,4.60
2022-12-14T12:30:56.276Z,4.60
2022-12-14T12:35:11.807Z,4.80
2022-12-14T12:39:21.382Z,4.80
2022-12-14T12:43:31.967Z,4.90
2022-12-14T12:47:48.353Z,4.90
2022-12-14T12:51:58.698Z,4.80
2022-12-14T12:56:43.560Z,4.80
2022-12-14T13:00:55.550Z,4.60
2022-12-14T13:05:10.939Z,4.50
2022-12-14T13:09:24.590Z,4.90
2022-12-14T13:13:31.090Z,5.00
2022-12-14T13:17:32.671Z,5.30
2022-12-14T13:21:38.337Z,5.30
2022-12-14T13:25:58.151Z,5.30
2022-12-14T13:30:24.626Z,5.60
2022-12-14T13:34:29.256Z,5.50
2022-12-14T13:38:58.921Z,5.50
2022-12-14T13:43:19.330Z,5.50
2022-12-14T13:47:49.309Z,5.30
2022-12-14T13:51:52.355Z,5.30
2022-12-14T13:55:58.864Z,5.70
2022-12-14T14:00:01.915Z,5.90
2022-12-14T14:04:14.072Z,5.60
2022-12-14T14:08:41.378Z,5.40
2022-12-14T14:12:44.844Z,5.80
2022-12-14T14:16:57.026Z,5.40
2022-12-14T14:21:22.033Z,5.60
2022-12-14T14:25:40.220Z,5.30
2022-12-14T14:29:47.379Z,5.50
2022-12-14T14:33:55.904Z,5.70
2022-12-14T14:38:08.938Z,6.00
2022-12-14T14:42:20.882Z,6.10
2022-12-14T14:46:36.124Z,5.90
2022-12-14T14:50:42.374Z,6.00
2022-12-14T14:55:16.177Z,5.90
2022-12-14T14:59:14.803Z,5.90
2022-12-14T15:03:19.345Z,6.10
2022-12-14T15:07:29.864Z,6.20
2022-12-14T15:11:48.757Z,6.20
2022-12-14T15:15:53.078Z,6.20
2022-12-14T15:19:56.893Z,6.20
2022-12-14T15:23:58.556Z,6.20
2022-12-14T15:28:05.712Z,6.30
2022-12-14T15:32:07.552Z,6.20
2022-12-14T15:36:15.729Z,6.10
2022-12-14T15:40:30.191Z,6.10
2022-12-14T15:44:32.061Z,6.20
2022-12-14T15:48:35.218Z,6.20
2022-12-14T15:52:37.088Z,6.20
2022-12-14T15:56:50.973Z,6.10
2022-12-14T16:00:56.807Z,6.10
2022-12-14T16:05:02.132Z,6.10
2022-12-14T16:09:41.578Z,6.10
2022-12-14T16:13:44.951Z,6.20
2022-12-14T16:17:46.816Z,6.20
2022-12-14T16:22:05.070Z,6.20
2022-12-14T16:26:15.976Z,5.90
2022-12-14T16:30:33.021Z,5.90
2022-12-14T16:34:34.926Z,5.90
2022-12-14T16:38:56.125Z,6.10
2022-12-14T16:42:57.893Z,6.20
2022-12-14T16:47:02.667Z,6.20
2022-12-14T16:51:28.582Z,6.30
2022-12-14T16:56:01.464Z,6.10
2022-12-14T17:00:06.030Z,5.60
2022-12-14T17:04:09.368Z,5.50
2022-12-14T17:08:11.640Z,5.60
2022-12-14T17:12:15.429Z,5.80
2022-12-14T17:16:23.296Z,5.80
2022-12-14T17:20:36.727Z,5.80
2022-12-14T17:24:38.440Z,5.90
2022-12-14T17:28:40.128Z,5.60
2022-12-14T17:32:42.808Z,5.90
2022-12-14T17:36:45.598Z,6.20
2022-12-14T17:40:48.842Z,6.20
2022-12-14T17:44:54.434Z,5.70
2022-12-14T17:48:56.995Z,5.90
2022-12-14T17:53:00.265Z,6.00
2022-12-14T17:57:02.083Z,6.00
2022-12-14T18:01:04.557Z,6.20
2022-12-14T18:05:11.805Z,6.10
2022-12-14T18:09:13.484Z,6.00
2022-12-14T18:13:15.567Z,5.90
2022-12-14T18:17:17.272Z,5.80
2022-12-14T18:21:28.094Z,5.60
2022-12-14T18:25:34.177Z,5.70
2022-12-14T18:29:35.857Z,6.00
2022-12-14T18:33:38.921Z,5.90
2022-12-14T18:37:40.624Z,6.10
2022-12-14T18:41:42.540Z,5.20
2022-12-14T18:45:44.244Z,5.10
2022-12-14T18:49:45.942Z,5.50
2022-12-14T18:53:47.822Z,5.70
2022-12-14T18:57:50.811Z,5.60
2022-12-14T19:01:52.780Z,6.00
2022-12-14T19:10:40.219Z,6.10
2022-12-14T19:14:41.929Z,5.30
2022-12-14T19:18:43.591Z,4.80
2022-12-14T19:22:45.833Z,5.10
2022-12-14T19:26:49.503Z,4.60
2022-12-14T19:30:51.422Z,4.90
2022-12-14T19:34:53.384Z,5.50
2022-12-14T19:38:55.135Z,5.70
2022-12-14T19:42:58.090Z,5.30
2022-12-14T19:47:00.851Z,4.90
2022-12-14T19:51:08.580Z,4.60
2022-12-14T19:55:11.629Z,4.40
2022-12-14T19:59:13.346Z,3.20
2022-12-14T20:03:15.182Z,3.30
2022-12-14T20:07:17.080Z,4.30
2022-12-14T20:11:20.347Z,3.90
2022-12-14T20:15:22.044Z,3.20
2022-12-14T20:19:24.422Z,2.70
2022-12-14T20:23:26.076Z,4.00
2022-12-14T20:27:27.859Z,4.60
2022-12-14T20:31:29.721Z,4.90
2022-12-14T20:35:33.452Z,4.90
2022-12-14T20:39:35.123Z,5.00
2022-12-14T20:43:38.889Z,5.30
2022-12-14T20:47:40.563Z,5.50
2022-12-14T20:51:43.972Z,5.60
2022-12-14T20:55:45.678Z,5.60
2022-12-14T20:59:47.382Z,5.50
2022-12-14T21:03:50.656Z,4.80
2022-12-14T21:07:52.438Z,5.20
2022-12-14T21:12:12.801Z,5.50
2022-12-14T21:16:14.544Z,5.50
2022-12-14T21:20:16.422Z,5.70
2022-12-14T21:24:37.515Z,5.70
2022-12-14T21:28:40.424Z,6.00
2022-12-14T21:32:42.120Z,5.70
2022-12-14T21:36:44.068Z,5.40
2022-12-14T21:41:13.791Z,5.40
2022-12-14T21:45:15.473Z,5.40
2022-12-14T21:49:17.437Z,5.40
2022-12-14T21:53:19.136Z,5.20
2022-12-14T21:57:42.497Z,5.10
2022-12-14T22:01:44.792Z,4.90
2022-12-14T22:05:46.916Z,4.90
2022-12-14T22:09:49.593Z,4.80
2022-12-14T22:13:51.761Z,5.10
2022-12-14T22:17:53.403Z,5.40
2022-12-14T22:21:55.216Z,5.60
2022-12-14T22:25:57.305Z,5.70
2022-12-14T22:29:59.024Z,5.70
2022-12-14T22:34:01.277Z,5.70
2022-12-14T22:38:03.003Z,5.90
2022-12-14T22:42:04.906Z,5.80
2022-12-14T22:46:07.002Z,5.80
2022-12-14T22:50:09.212Z,5.70
2022-12-14T22:54:24.786Z,5.80
2022-12-14T22:58:28.767Z,5.80
2022-12-14T23:02:31.292Z,5.70
2022-12-14T23:06:33.952Z,5.60
2022-12-14T23:11:44.806Z,-0.30
2022-12-14T23:17:00.853Z,-1.40
2022-12-14T23:23:00.307Z,-1.40
2022-12-14T23:28:03.628Z,-0.30
2022-12-14T23:32:24.024Z,-0.30
2022-12-14T23:36:44.140Z,-0.40
2022-12-14T23:43:31.735Z,-0.40
2022-12-14T23:47:52.584Z,-0.50
2022-12-14T23:52:13.080Z,-0.40
2022-12-14T23:56:33.570Z,-0.40
